Time;durP1;ratioP1;P1;durP2;ratioP2;P2;SDS_P1;SDS_P2;PMS_P1;PMS_P2;Temp;Humidity;BMP_temperature;BMP_pressure;BME280_temperature;BME280_humidity;BME280_pressure;Samples;Min_cycle;Max_cycle;Signal;HPM_P1;HPM_P2
2022/10/21 00:01:49;;;;;;;4.07;3.50;;;19.80;99.90;;;;;;4131530;28;20990;-75
2022/10/21 00:03:53;;;;;;;4.22;3.22;;;19.80;99.90;;;;;;4131359;28;20264;-75
2022/10/21 00:05:56;;;;;;;4.97;3.47;;;19.70;99.90;;;;;;4131666;28;20572;-76
2022/10/21 00:07:58;;;;;;;3.78;3.10;;;19.80;99.90;;;;;;4131201;28;20260;-76
2022/10/21 00:10:00;;;;;;;4.90;3.83;;;19.80;99.90;;;;;;4130663;28;20265;-75
2022/10/21 00:12:03;;;;;;;4.47;3.88;;;19.80;99.90;;;;;;4125760;28;20226;-76
2022/10/21 00:14:05;;;;;;;4.15;3.40;;;19.70;99.90;;;;;;4123973;28;20217;-75
2022/10/21 00:16:10;;;;;;;4.25;3.38;;;19.80;99.90;;;;;;4131432;28;20275;-75
2022/10/21 00:18:12;;;;;;;4.38;3.67;;;19.70;99.90;;;;;;4131227;28;20620;-75
2022/10/21 00:20:16;;;;;;;4.30;3.17;;;19.70;99.90;;;;;;4131585;28;20225;-75
2022/10/21 00:22:18;;;;;;;3.85;3.42;;;19.70;99.90;;;;;;4131277;28;20227;-75
2022/10/21 00:24:20;;;;;;;3.50;3.17;;;19.70;99.90;;;;;;4129452;28;20218;-76
2022/10/21 00:26:23;;;;;;;4.25;3.70;;;19.70;99.90;;;;;;4131038;28;20280;-75
2022/10/21 00:28:25;;;;;;;3.88;3.22;;;19.70;99.90;;;;;;4131437;28;20230;-75
2022/10/21 00:30:27;;;;;;;4.82;3.80;;;19.70;99.90;;;;;;4131391;28;20226;-75
2022/10/21 00:32:30;;;;;;;4.13;3.28;;;19.70;99.90;;;;;;4131026;28;20225;-75
2022/10/21 00:34:33;;;;;;;3.88;3.13;;;19.80;99.90;;;;;;4130947;28;20659;-76
2022/10/21 00:36:36;;;;;;;4.32;3.30;;;19.70;99.90;;;;;;4128881;28;20260;-75
2022/10/21 00:38:38;;;;;;;3.25;2.90;;;19.70;99.90;;;;;;4131137;28;20221;-76
2022/10/21 00:40:41;;;;;;;4.18;3.42;;;19.70;99.90;;;;;;4130867;28;20222;-75
2022/10/21 00:42:43;;;;;;;3.55;3.25;;;19.70;99.90;;;;;;4130625;28;20300;-75
2022/10/21 00:45:02;;;;;;;5.40;3.70;;;19.70;99.90;;;;;;4131027;28;20593;-75
2022/10/21 00:47:10;;;;;;;4.03;3.60;;;19.70;99.90;;;;;;4130662;28;20626;-75
2022/10/21 00:49:18;;;;;;;4.28;3.08;;;19.70;99.90;;;;;;4130671;28;20279;-76
2022/10/21 00:51:21;;;;;;;4.63;3.50;;;19.70;99.90;;;;;;4130649;28;20217;-75
2022/10/21 00:53:25;;;;;;;4.25;3.25;;;19.70;99.90;;;;;;4130008;28;20567;-75
2022/10/21 00:55:32;;;;;;;4.03;3.60;;;19.70;99.90;;;;;;4130626;28;20280;-75
2022/10/21 00:57:35;;;;;;;4.50;3.58;;;19.70;99.90;;;;;;4130613;28;20276;-76
2022/10/21 00:59:42;;;;;;;4.63;3.47;;;19.70;99.90;;;;;;4130544;28;20300;-75
2022/10/21 01:01:44;;;;;;;4.28;3.50;;;19.70;99.90;;;;;;4145785;28;20240;-76
2022/10/21 01:03:46;;;;;;;4.20;3.08;;;19.70;99.90;;;;;;4146442;28;20241;-75
2022/10/21 01:05:50;;;;;;;3.40;3.00;;;19.70;99.90;;;;;;4146779;28;20623;-75
2022/10/21 01:07:52;;;;;;;4.68;3.17;;;19.70;99.90;;;;;;4146521;28;20279;-76
2022/10/21 01:09:55;;;;;;;4.18;3.08;;;19.70;99.90;;;;;;4146195;28;20300;-75
2022/10/21 01:12:00;;;;;;;5.07;3.10;;;19.70;99.90;;;;;;4145385;28;20252;-75
2022/10/21 01:14:31;;;;;;;4.13;3.33;;;19.70;99.90;;;;;;4143805;28;20272;-76
2022/10/21 01:16:39;;;;;;;4.97;3.60;;;19.60;99.90;;;;;;4118168;28;20559;-76
2022/10/21 01:18:52;;;;;;;4.03;3.22;;;19.70;99.90;;;;;;4146351;28;20216;-75
2022/10/21 01:21:09;;;;;;;4.15;3.50;;;19.70;99.90;;;;;;4146603;28;20622;-75
2022/10/21 01:23:51;;;;;;;4.32;3.65;;;19.70;99.90;;;;;;4146806;28;20630;-75
2022/10/21 01:26:17;;;;;;;4.47;3.47;;;19.60;99.90;;;;;;4143599;28;20217;-75
2022/10/21 01:28:27;;;;;;;4.07;3.42;;;19.60;99.90;;;;;;4146215;28;20225;-75
2022/10/21 01:30:36;;;;;;;5.45;3.75;;;19.60;99.90;;;;;;4146031;28;20283;-75
2022/10/21 01:33:04;;;;;;;3.33;3.00;;;19.60;99.90;;;;;;4145835;28;20266;-75
2022/10/21 01:35:12;;;;;;;4.95;3.30;;;19.60;99.90;;;;;;4135828;28;20293;-75
2022/10/21 01:37:24;;;;;;;3.40;3.10;;;19.60;99.90;;;;;;4138408;28;20730;-76
2022/10/21 01:39:33;;;;;;;4.50;3.30;;;19.60;99.90;;;;;;4146440;28;20275;-75
2022/10/21 01:41:40;;;;;;;3.30;3.00;;;19.60;99.90;;;;;;4146256;28;20254;-75
2022/10/21 01:43:49;;;;;;;5.07;3.50;;;19.60;99.90;;;;;;4142200;28;20291;-76
2022/10/21 01:45:58;;;;;;;3.95;3.30;;;19.60;99.90;;;;;;4146299;28;20232;-75
2022/10/21 01:48:05;;;;;;;4.15;3.40;;;19.60;99.90;;;;;;4145697;28;20298;-75
2022/10/21 01:50:13;;;;;;;3.70;3.22;;;19.60;99.90;;;;;;4146445;28;20658;-75
2022/10/21 01:52:17;;;;;;;3.65;3.20;;;19.60;99.90;;;;;;4140228;28;20627;-75
2022/10/21 01:54:23;;;;;;;3.60;3.25;;;19.60;99.90;;;;;;4145609;28;20271;-75
2022/10/21 01:56:26;;;;;;;5.13;3.50;;;19.60;99.90;;;;;;4145977;28;20574;-75
2022/10/21 01:58:34;;;;;;;3.67;3.10;;;19.60;99.90;;;;;;4146004;28;20634;-75
2022/10/21 02:00:39;;;;;;;3.58;3.00;;;19.60;99.90;;;;;;4144669;28;20229;-75
2022/10/21 02:02:46;;;;;;;3.42;2.83;;;19.60;99.90;;;;;;4140882;28;20284;-75
2022/10/21 02:04:51;;;;;;;3.83;3.45;;;19.60;99.90;;;;;;4144302;28;20248;-76
2022/10/21 02:06:54;;;;;;;3.80;3.40;;;19.60;99.90;;;;;;4144588;28;20221;-75
2022/10/21 02:08:56;;;;;;;3.85;3.55;;;19.60;99.90;;;;;;4144557;28;20220;-75
2022/10/21 02:11:02;;;;;;;5.15;3.35;;;19.60;99.90;;;;;;4144200;28;20955;-75
2022/10/21 02:13:06;;;;;;;6.15;3.22;;;19.60;99.90;;;;;;4144528;28;20981;-75
2022/10/21 02:15:10;;;;;;;5.35;3.47;;;19.60;99.90;;;;;;4144157;28;20217;-75
2022/10/21 02:17:17;;;;;;;3.67;3.38;;;19.60;99.90;;;;;;4144754;28;20220;-75
2022/10/21 02:19:21;;;;;;;4.20;3.38;;;19.60;99.90;;;;;;4144368;28;20237;-75
2022/10/21 02:21:25;;;;;;;3.88;3.47;;;19.60;99.90;;;;;;4144116;28;20275;-75
2022/10/21 02:23:36;;;;;;;4.63;3.42;;;19.60;99.90;;;;;;4144182;28;20240;-75
2022/10/21 02:25:41;;;;;;;5.10;3.78;;;19.60;99.90;;;;;;4143859;28;20271;-75
2022/10/21 02:27:44;;;;;;;4.18;3.25;;;19.60;99.90;;;;;;4142575;28;21025;-75
2022/10/21 02:29:48;;;;;;;3.80;3.40;;;19.60;99.90;;;;;;4143852;28;20217;-75
2022/10/21 02:32:01;;;;;;;3.90;3.28;;;19.60;99.90;;;;;;4143983;28;20233;-76
2022/10/21 02:34:13;;;;;;;3.95;3.17;;;19.60;99.90;;;;;;4144165;28;20208;-76
2022/10/21 02:36:26;;;;;;;3.20;2.90;;;19.60;99.90;;;;;;4143772;28;20279;-76
2022/10/21 02:38:32;;;;;;;4.32;3.28;;;19.60;99.90;;;;;;4144810;28;20287;-75
2022/10/21 02:40:37;;;;;;;4.65;3.15;;;19.60;99.90;;;;;;4142634;28;20221;-75
2022/10/21 02:42:44;;;;;;;3.78;3.05;;;19.60;99.90;;;;;;4143676;28;20654;-76
2022/10/21 02:44:47;;;;;;;3.53;3.22;;;19.60;99.90;;;;;;4143394;28;20755;-76
2022/10/21 02:46:49;;;;;;;3.53;3.15;;;19.50;99.90;;;;;;4145113;28;20221;-76
2022/10/21 02:48:52;;;;;;;3.58;3.20;;;19.50;99.90;;;;;;4146302;28;20225;-75
2022/10/21 02:50:55;;;;;;;3.90;3.50;;;19.50;99.90;;;;;;4150633;28;20217;-76
2022/10/21 02:52:58;;;;;;;5.57;3.30;;;19.50;99.90;;;;;;4147495;28;20681;-75
2022/10/21 02:55:01;;;;;;;3.15;2.85;;;19.50;99.90;;;;;;4147272;28;20217;-75
2022/10/21 02:57:03;;;;;;;3.47;3.17;;;19.60;99.90;;;;;;4147191;28;20220;-75
2022/10/21 02:59:05;;;;;;;3.17;2.88;;;19.50;99.90;;;;;;4147277;28;20228;-76
2022/10/21 03:01:07;;;;;;;5.18;3.15;;;19.50;99.90;;;;;;4147120;28;20692;-75
2022/10/21 03:03:09;;;;;;;3.72;3.33;;;19.50;99.90;;;;;;4147378;28;20297;-75
2022/10/21 03:05:12;;;;;;;3.00;2.70;;;19.50;99.90;;;;;;4148618;28;20236;-75
2022/10/21 03:07:14;;;;;;;4.30;3.08;;;19.50;99.90;;;;;;4145213;28;20272;-76
2022/10/21 03:09:18;;;;;;;3.78;3.05;;;19.50;99.90;;;;;;4145380;28;20209;-76
2022/10/21 03:11:20;;;;;;;6.22;3.35;;;19.50;99.90;;;;;;4139604;28;20263;-75
2022/10/21 03:13:22;;;;;;;4.97;3.50;;;19.50;99.90;;;;;;4141629;28;20221;-75
2022/10/21 03:15:25;;;;;;;3.53;2.85;;;19.50;99.90;;;;;;4147931;28;20213;-75
2022/10/21 03:17:27;;;;;;;2.92;2.60;;;19.50;99.90;;;;;;4148625;28;20292;-75
2022/10/21 03:19:29;;;;;;;3.63;3.15;;;19.50;99.90;;;;;;4148485;28;20445;-74
2022/10/21 03:21:31;;;;;;;5.38;3.28;;;19.50;99.90;;;;;;4147937;28;20267;-75
2022/10/21 03:23:34;;;;;;;3.70;3.10;;;19.50;99.90;;;;;;4147801;28;20251;-75
2022/10/21 03:25:37;;;;;;;3.67;3.00;;;19.50;99.90;;;;;;4147785;28;20241;-76
2022/10/21 03:27:40;;;;;;;3.85;2.75;;;19.50;99.90;;;;;;4148447;28;20677;-75
2022/10/21 03:29:42;;;;;;;4.30;2.92;;;19.50;99.90;;;;;;4138237;28;20655;-75
2022/10/21 03:31:44;;;;;;;3.33;3.03;;;19.50;99.90;;;;;;4146604;28;20217;-76
2022/10/21 03:33:46;;;;;;;3.38;2.80;;;19.50;99.90;;;;;;4148339;28;20217;-75
2022/10/21 03:35:51;;;;;;;3.20;2.90;;;19.50;99.90;;;;;;4145411;28;20213;-75
2022/10/21 03:37:54;;;;;;;3.70;3.00;;;19.50;99.90;;;;;;4146990;28;20645;-76
2022/10/21 03:39:56;;;;;;;4.20;3.15;;;19.50;99.90;;;;;;4146889;28;20700;-76
2022/10/21 03:41:59;;;;;;;4.43;3.10;;;19.50;99.90;;;;;;4147320;28;20229;-75
2022/10/21 03:44:03;;;;;;;3.78;2.90;;;19.50;99.90;;;;;;4147002;28;20213;-75
2022/10/21 03:46:05;;;;;;;4.32;3.28;;;19.50;99.90;;;;;;4149191;28;20217;-76
2022/10/21 03:48:08;;;;;;;3.42;2.80;;;19.40;99.90;;;;;;4146451;28;20275;-75
2022/10/21 03:50:10;;;;;;;3.95;2.97;;;19.50;99.90;;;;;;4140581;28;20279;-75
2022/10/21 03:52:12;;;;;;;3.63;2.70;;;19.50;99.90;;;;;;4146042;28;20229;-75
2022/10/21 03:54:14;;;;;;;3.03;2.72;;;19.40;99.90;;;;;;4146407;28;20264;-75
2022/10/21 03:56:17;;;;;;;3.97;3.03;;;19.40;99.90;;;;;;4146739;28;20229;-76
2022/10/21 03:58:20;;;;;;;3.72;2.78;;;19.40;99.90;;;;;;4146292;28;20221;-76
2022/10/21 04:00:23;;;;;;;3.47;3.00;;;19.40;99.90;;;;;;4145693;28;20237;-75
2022/10/21 04:02:25;;;;;;;3.55;2.95;;;19.40;99.90;;;;;;4146153;28;20221;-75
2022/10/21 04:04:27;;;;;;;3.35;3.00;;;19.50;99.90;;;;;;4145802;28;20652;-75
2022/10/21 04:06:30;;;;;;;4.20;2.90;;;19.40;99.90;;;;;;4146336;28;20224;-76
2022/10/21 04:08:32;;;;;;;2.90;2.65;;;19.40;99.90;;;;;;4146225;28;20669;-75
2022/10/21 04:10:34;;;;;;;3.28;2.88;;;19.50;99.90;;;;;;4146404;28;20299;-76
2022/10/21 04:12:36;;;;;;;3.53;2.70;;;19.40;99.90;;;;;;4145971;28;20217;-76
2022/10/21 04:14:40;;;;;;;3.05;2.75;;;19.50;99.90;;;;;;4145926;28;20213;-76
2022/10/21 04:16:42;;;;;;;3.13;2.70;;;19.40;99.90;;;;;;4150910;28;20304;-76
2022/10/21 04:18:45;;;;;;;3.33;3.03;;;19.40;99.90;;;;;;4146289;28;20616;-76
2022/10/21 04:20:47;;;;;;;3.42;3.00;;;19.50;99.90;;;;;;4145812;28;20221;-75
2022/10/21 04:22:49;;;;;;;3.50;3.00;;;19.50;99.90;;;;;;4145688;28;20209;-75
2022/10/21 04:24:51;;;;;;;3.60;2.90;;;19.40;99.90;;;;;;4146138;28;20774;-75
2022/10/21 04:26:54;;;;;;;4.90;3.17;;;19.40;99.90;;;;;;4145852;28;20316;-75
2022/10/21 04:28:56;;;;;;;3.25;2.75;;;19.40;99.90;;;;;;4145470;28;20246;-76
2022/10/21 04:30:59;;;;;;;3.10;2.80;;;19.40;99.90;;;;;;4146155;28;20220;-75
2022/10/21 04:33:02;;;;;;;3.03;2.70;;;19.50;99.90;;;;;;4146194;28;20271;-76
2022/10/21 04:35:04;;;;;;;3.60;2.85;;;19.40;99.90;;;;;;4144722;28;20255;-75
2022/10/21 04:37:07;;;;;;;4.15;2.70;;;19.40;99.90;;;;;;4145418;28;20217;-75
2022/10/21 04:39:09;;;;;;;3.90;2.97;;;19.40;99.90;;;;;;4145602;28;20275;-75
2022/10/21 04:41:11;;;;;;;4.00;2.90;;;19.50;99.90;;;;;;4145559;28;20224;-76
2022/10/21 04:43:14;;;;;;;4.68;2.83;;;19.50;99.90;;;;;;4145818;28;20213;-76
2022/10/21 04:45:16;;;;;;;2.90;2.65;;;19.40;99.90;;;;;;4146045;28;20630;-76
2022/10/21 04:47:20;;;;;;;2.60;2.40;;;19.40;99.90;;;;;;4145522;28;20221;-76
2022/10/21 04:49:22;;;;;;;3.10;2.63;;;19.40;99.90;;;;;;4144469;28;20759;-76
2022/10/21 04:51:24;;;;;;;3.47;2.88;;;19.50;99.90;;;;;;4143526;28;20217;-76
2022/10/21 04:53:27;;;;;;;3.55;2.85;;;19.40;99.90;;;;;;4145650;28;20216;-76
2022/10/21 04:55:29;;;;;;;3.17;2.88;;;19.40;99.90;;;;;;4145605;28;20225;-76
2022/10/21 04:57:31;;;;;;;4.50;3.03;;;19.40;99.90;;;;;;4155955;28;20221;-75
2022/10/21 04:59:34;;;;;;;3.03;2.35;;;19.40;99.90;;;;;;4145204;28;20225;-76
2022/10/21 05:01:36;;;;;;;3.72;3.30;;;19.40;99.90;;;;;;4145124;28;20241;-76
2022/10/21 05:03:40;;;;;;;3.58;2.75;;;19.40;99.90;;;;;;4150877;28;20221;-74
2022/10/21 05:05:42;;;;;;;4.93;3.00;;;19.40;99.90;;;;;;4147918;28;20241;-75
2022/10/21 05:07:44;;;;;;;3.58;2.83;;;19.50;99.90;;;;;;4142843;28;20269;-75
2022/10/21 05:09:46;;;;;;;3.10;2.80;;;19.40;99.90;;;;;;4144331;28;20255;-75
2022/10/21 05:11:49;;;;;;;3.92;2.47;;;19.40;99.90;;;;;;4144115;28;20334;-75
2022/10/21 05:13:51;;;;;;;4.18;2.88;;;19.40;99.90;;;;;;4144319;28;20268;-75
2022/10/21 05:15:57;;;;;;;3.58;2.80;;;19.40;99.90;;;;;;4145304;28;20217;-75
2022/10/21 05:18:00;;;;;;;3.42;2.75;;;19.40;99.90;;;;;;4145214;28;20217;-75
2022/10/21 05:20:05;;;;;;;3.63;2.80;;;19.40;99.90;;;;;;4145495;28;20291;-75
2022/10/21 05:22:07;;;;;;;3.40;2.65;;;19.40;99.90;;;;;;4145667;28;20287;-75
2022/10/21 05:24:10;;;;;;;3.72;2.67;;;19.40;99.90;;;;;;4145532;28;20216;-75
2022/10/21 05:26:12;;;;;;;2.90;2.60;;;19.40;99.90;;;;;;4145247;28;20237;-75
2022/10/21 05:28:14;;;;;;;3.65;2.80;;;19.40;99.90;;;;;;4144967;28;20229;-75
2022/10/21 05:30:17;;;;;;;3.13;2.63;;;19.40;99.90;;;;;;4142411;28;20221;-75
2022/10/21 05:32:19;;;;;;;3.00;2.70;;;19.40;99.90;;;;;;4143960;28;20619;-75
2022/10/21 05:34:21;;;;;;;3.50;2.50;;;19.40;99.90;;;;;;4144068;28;20256;-75
2022/10/21 05:36:25;;;;;;;2.95;2.65;;;19.40;99.90;;;;;;4144358;28;20443;-75
2022/10/21 05:38:28;;;;;;;4.55;3.00;;;19.40;99.90;;;;;;4138884;28;20263;-75
2022/10/21 05:40:30;;;;;;;4.28;2.67;;;19.40;99.90;;;;;;4143741;28;20909;-75
2022/10/21 05:42:32;;;;;;;3.55;2.85;;;19.40;99.90;;;;;;4143283;28;20225;-75
2022/10/21 05:44:35;;;;;;;3.08;2.60;;;19.40;99.90;;;;;;4144641;28;20218;-75
2022/10/21 05:46:37;;;;;;;3.97;2.80;;;19.40;99.90;;;;;;4143618;28;20283;-75
2022/10/21 05:48:39;;;;;;;3.33;2.70;;;19.40;99.90;;;;;;4143292;28;20213;-75
2022/10/21 05:50:41;;;;;;;4.28;2.80;;;19.40;99.90;;;;;;4144849;28;20633;-75
2022/10/21 05:52:45;;;;;;;3.22;2.67;;;19.40;99.90;;;;;;4144391;28;20252;-75
2022/10/21 05:54:47;;;;;;;3.28;2.70;;;19.40;99.90;;;;;;4144896;28;20210;-75
2022/10/21 05:56:55;;;;;;;2.55;2.22;;;19.40;99.90;;;;;;4144631;28;20221;-75
2022/10/21 05:58:57;;;;;;;2.78;2.50;;;19.40;99.90;;;;;;4144498;28;20619;-75
2022/10/21 06:01:00;;;;;;;4.50;2.50;;;19.40;99.90;;;;;;4144326;28;20303;-75
2022/10/21 06:03:03;;;;;;;4.45;2.80;;;19.40;99.90;;;;;;4144380;28;20641;-75
2022/10/21 06:05:05;;;;;;;2.78;2.53;;;19.40;99.90;;;;;;4147972;28;20221;-75
2022/10/21 06:07:07;;;;;;;3.13;2.67;;;19.40;99.90;;;;;;4142969;28;20282;-75
2022/10/21 06:09:11;;;;;;;2.72;2.40;;;19.40;99.90;;;;;;4143048;28;20284;-75
2022/10/21 06:11:16;;;;;;;3.45;2.72;;;19.40;99.90;;;;;;4142927;28;20276;-75
2022/10/21 06:13:18;;;;;;;3.50;2.80;;;19.40;99.90;;;;;;4143183;28;20217;-76
2022/10/21 06:15:20;;;;;;;2.90;2.70;;;19.40;99.90;;;;;;4143602;28;20221;-75
2022/10/21 06:17:22;;;;;;;2.90;2.60;;;19.40;99.90;;;;;;4143970;28;20991;-75
2022/10/21 06:19:25;;;;;;;3.20;2.63;;;19.40;99.90;;;;;;4143640;28;20221;-75
2022/10/21 06:21:27;;;;;;;3.55;2.38;;;19.40;99.90;;;;;;4143712;28;20272;-75
2022/10/21 06:23:30;;;;;;;2.92;2.65;;;19.40;99.90;;;;;;4144384;28;20279;-75
2022/10/21 06:25:33;;;;;;;3.63;3.08;;;19.40;99.90;;;;;;4144095;28;20272;-75
2022/10/21 06:27:35;;;;;;;3.08;2.55;;;19.40;99.90;;;;;;4144175;28;20213;-75
2022/10/21 06:29:38;;;;;;;3.13;2.50;;;19.40;99.90;;;;;;4143968;28;20259;-75
2022/10/21 06:31:40;;;;;;;3.15;2.58;;;19.50;99.90;;;;;;4144936;28;20288;-75
2022/10/21 06:33:43;;;;;;;3.28;2.58;;;19.40;99.90;;;;;;4144122;28;20267;-75
2022/10/21 06:35:45;;;;;;;2.63;2.40;;;19.40;99.90;;;;;;4144076;28;20217;-75
2022/10/21 06:37:47;;;;;;;3.50;2.85;;;19.40;99.90;;;;;;4142798;28;20225;-76
2022/10/21 06:39:50;;;;;;;3.40;2.72;;;19.40;99.90;;;;;;4143524;28;20286;-75
2022/10/21 06:41:53;;;;;;;3.00;2.33;;;19.40;99.90;;;;;;4144238;28;20979;-75
2022/10/21 06:43:56;;;;;;;3.45;2.50;;;19.40;99.90;;;;;;4143693;28;20665;-75
2022/10/21 06:46:01;;;;;;;3.67;2.85;;;19.40;99.90;;;;;;4144147;28;20705;-75
2022/10/21 06:48:03;;;;;;;3.65;2.65;;;19.40;99.90;;;;;;4143929;28;20225;-75
2022/10/21 06:50:07;;;;;;;3.00;2.53;;;19.40;99.90;;;;;;4148637;28;20281;-74
2022/10/21 06:52:09;;;;;;;3.75;2.80;;;19.40;99.90;;;;;;4149398;28;20279;-76
2022/10/21 06:54:11;;;;;;;3.92;2.55;;;19.40;99.90;;;;;;4143705;28;21288;-76
2022/10/21 06:56:16;;;;;;;3.13;2.50;;;19.40;99.90;;;;;;4146430;28;20213;-75
2022/10/21 06:58:19;;;;;;;3.20;2.53;;;19.40;99.90;;;;;;4143390;28;20286;-74
2022/10/21 07:00:22;;;;;;;3.45;2.63;;;19.40;99.90;;;;;;4142257;28;20232;-74
2022/10/21 07:02:24;;;;;;;3.30;2.58;;;19.40;99.90;;;;;;4141997;28;20275;-74
2022/10/21 07:04:27;;;;;;;4.60;2.55;;;19.40;99.90;;;;;;4140479;28;20267;-74
2022/10/21 07:06:29;;;;;;;4.45;2.58;;;19.50;99.90;;;;;;4142963;28;20287;-74
2022/10/21 07:08:34;;;;;;;4.90;2.67;;;19.60;99.90;;;;;;4142985;28;20283;-75
2022/10/21 07:10:36;;;;;;;3.95;2.70;;;19.60;99.90;;;;;;4144222;28;20259;-75
2022/10/21 07:12:38;;;;;;;3.60;2.53;;;19.70;99.90;;;;;;4144243;28;20213;-75
2022/10/21 07:14:42;;;;;;;3.15;2.45;;;19.80;99.90;;;;;;4142915;28;20283;-76
2022/10/21 07:16:44;;;;;;;2.92;2.47;;;19.90;99.90;;;;;;4142436;28;20209;-75
2022/10/21 07:18:46;;;;;;;2.90;2.58;;;20.00;99.90;;;;;;4140718;28;20276;-74
2022/10/21 07:20:49;;;;;;;4.07;2.50;;;20.00;99.90;;;;;;4141874;28;20284;-74
2022/10/21 07:22:51;;;;;;;3.58;2.70;;;20.00;99.90;;;;;;4143036;28;20248;-75
2022/10/21 07:24:53;;;;;;;2.88;2.55;;;20.10;99.90;;;;;;4137430;28;20227;-75
2022/10/21 07:26:55;;;;;;;3.75;2.40;;;20.10;99.90;;;;;;4135122;28;20355;-76
2022/10/21 07:28:59;;;;;;;3.35;2.22;;;20.10;99.90;;;;;;4141020;28;20263;-75
2022/10/21 07:31:05;;;;;;;4.78;2.80;;;20.10;99.90;;;;;;4134153;28;20236;-75
2022/10/21 07:33:07;;;;;;;3.55;2.47;;;20.30;99.90;;;;;;4143937;28;20282;-74
2022/10/21 07:35:09;;;;;;;6.63;2.65;;;20.30;99.90;;;;;;4143210;28;20308;-75
2022/10/21 07:37:11;;;;;;;3.67;2.50;;;20.40;99.90;;;;;;4146049;28;20224;-75
2022/10/21 07:39:16;;;;;;;3.30;2.55;;;20.40;99.90;;;;;;4145073;28;20217;-75
2022/10/21 07:41:21;;;;;;;3.28;2.83;;;20.50;99.90;;;;;;4146458;28;20315;-75
2022/10/21 07:43:23;;;;;;;3.42;2.30;;;20.50;99.90;;;;;;4140199;28;20650;-76
2022/10/21 07:45:25;;;;;;;4.25;2.58;;;20.50;99.90;;;;;;4140448;28;20988;-75
2022/10/21 07:47:29;;;;;;;4.32;2.22;;;20.50;99.90;;;;;;4139846;28;20285;-74
2022/10/21 07:49:31;;;;;;;3.38;2.67;;;20.60;99.90;;;;;;4143631;28;20290;-75
2022/10/21 07:51:34;;;;;;;3.83;2.78;;;20.60;99.90;;;;;;4145619;28;20217;-74
2022/10/21 07:53:36;;;;;;;3.80;2.67;;;20.60;99.90;;;;;;4142558;28;21002;-74
2022/10/21 07:55:38;;;;;;;4.20;2.97;;;20.70;99.90;;;;;;4143486;28;20225;-74
2022/10/21 07:57:41;;;;;;;6.00;2.70;;;20.60;99.90;;;;;;4143591;28;20212;-74
2022/10/21 07:59:43;;;;;;;4.97;2.75;;;20.70;99.90;;;;;;4144263;28;20620;-74
2022/10/21 08:01:47;;;;;;;4.18;2.75;;;20.70;99.90;;;;;;4145590;28;20290;-74
2022/10/21 08:03:53;;;;;;;4.10;2.65;;;20.70;99.90;;;;;;4148700;28;20212;-75
2022/10/21 08:05:56;;;;;;;3.53;2.63;;;20.80;99.90;;;;;;4141373;28;20673;-75
2022/10/21 08:07:58;;;;;;;3.15;2.53;;;20.80;99.90;;;;;;4142122;28;20233;-75
2022/10/21 08:10:01;;;;;;;2.72;2.38;;;20.80;99.90;;;;;;4145266;28;20225;-73
2022/10/21 08:12:04;;;;;;;3.72;2.60;;;20.80;99.90;;;;;;4146633;28;20217;-75
2022/10/21 08:14:07;;;;;;;6.47;2.47;;;20.80;99.90;;;;;;4145114;28;20221;-74
2022/10/21 08:16:09;;;;;;;3.53;2.72;;;20.80;99.90;;;;;;4145298;28;20275;-75
2022/10/21 08:18:12;;;;;;;5.10;3.00;;;20.90;99.90;;;;;;4142203;28;20222;-76
2022/10/21 08:20:16;;;;;;;7.50;2.90;;;20.90;99.90;;;;;;4144946;28;20850;-76
2022/10/21 08:22:18;;;;;;;4.68;2.70;;;20.90;99.90;;;;;;4142658;28;20221;-76
2022/10/21 08:24:22;;;;;;;3.42;2.58;;;21.00;99.90;;;;;;4142921;28;20217;-76
2022/10/21 08:26:24;;;;;;;3.88;2.50;;;21.00;99.90;;;;;;4141620;28;20222;-76
2022/10/21 08:28:28;;;;;;;2.55;2.33;;;21.00;99.90;;;;;;4136408;28;20218;-76
2022/10/21 08:30:31;;;;;;;4.75;2.58;;;21.00;99.90;;;;;;4144247;28;20669;-75
2022/10/21 08:32:33;;;;;;;6.03;2.90;;;20.90;99.90;;;;;;4142936;28;20209;-76
2022/10/21 08:34:37;;;;;;;3.58;2.63;;;20.90;99.90;;;;;;4141878;28;20835;-75
2022/10/21 08:36:40;;;;;;;3.08;2.47;;;21.00;99.90;;;;;;4144794;28;20263;-75
2022/10/21 08:38:43;;;;;;;5.28;2.70;;;21.00;99.90;;;;;;4143678;28;20217;-77
2022/10/21 08:40:47;;;;;;;3.22;2.85;;;21.10;99.90;;;;;;4144379;28;20271;-76
2022/10/21 08:42:49;;;;;;;3.28;2.42;;;21.10;99.90;;;;;;4143173;28;20221;-75
2022/10/21 08:44:56;;;;;;;4.57;3.03;;;21.10;99.90;;;;;;4143192;28;20221;-76
2022/10/21 08:47:05;;;;;;;3.33;2.90;;;21.00;99.90;;;;;;4142960;28;20237;-76
2022/10/21 08:49:15;;;;;;;4.22;2.72;;;21.10;99.90;;;;;;4147216;28;20212;-76
2022/10/21 08:51:29;;;;;;;3.05;2.50;;;21.10;99.90;;;;;;4144435;28;20216;-76
2022/10/21 08:53:39;;;;;;;2.53;2.33;;;21.10;99.90;;;;;;4144738;28;20279;-76
2022/10/21 08:55:43;;;;;;;2.50;2.30;;;21.10;99.90;;;;;;4142467;28;20224;-76
2022/10/21 08:57:47;;;;;;;4.07;2.65;;;21.20;99.90;;;;;;4149772;28;20224;-76
2022/10/21 08:59:50;;;;;;;3.20;2.28;;;21.20;99.90;;;;;;4152002;28;20217;-75
2022/10/21 09:01:59;;;;;;;6.85;2.92;;;21.10;99.90;;;;;;4145159;28;20287;-76
2022/10/21 09:04:10;;;;;;;3.35;2.58;;;21.20;99.90;;;;;;4142411;28;20270;-76
2022/10/21 09:06:22;;;;;;;4.95;2.50;;;21.20;99.90;;;;;;4142179;28;20229;-76
2022/10/21 09:08:31;;;;;;;5.25;2.55;;;21.20;99.90;;;;;;4131160;28;20237;-76
2022/10/21 09:10:47;;;;;;;2.95;2.35;;;21.30;99.90;;;;;;4125625;28;20304;-76
2022/10/21 09:13:01;;;;;;;3.10;2.70;;;21.30;99.90;;;;;;4144769;28;20670;-76
2022/10/21 09:15:23;;;;;;;3.88;2.55;;;21.30;99.90;;;;;;4137206;28;20252;-75
2022/10/21 09:17:46;;;;;;;3.85;2.78;;;21.30;99.90;;;;;;4143764;28;20209;-75
2022/10/21 09:19:58;;;;;;;3.22;2.40;;;21.30;99.90;;;;;;4140743;28;21846;-75
2022/10/21 09:22:14;;;;;;;4.00;2.30;;;21.30;99.90;;;;;;4143476;28;20221;-73
2022/10/21 09:24:22;;;;;;;4.65;2.55;;;21.30;99.90;;;;;;4145584;28;20213;-73
2022/10/21 09:26:38;;;;;;;3.85;2.75;;;21.30;99.90;;;;;;4138997;28;20213;-73
2022/10/21 09:28:41;;;;;;;6.05;3.00;;;21.30;99.90;;;;;;4141064;28;20291;-72
2022/10/21 09:30:44;;;;;;;4.57;2.80;;;21.40;99.90;;;;;;4144732;28;20216;-72
2022/10/21 09:32:48;;;;;;;5.28;2.90;;;21.40;99.90;;;;;;4143813;28;20213;-71
2022/10/21 09:34:56;;;;;;;8.57;2.83;;;21.40;99.90;;;;;;4146886;28;20678;-72
2022/10/21 09:36:59;;;;;;;5.57;2.70;;;21.40;99.90;;;;;;4137284;28;20216;-72
2022/10/21 09:39:06;;;;;;;3.42;2.60;;;21.50;99.90;;;;;;4144146;28;20637;-72
2022/10/21 09:41:14;;;;;;;5.40;2.70;;;21.50;99.90;;;;;;4149347;28;20275;-73
2022/10/21 09:43:23;;;;;;;5.03;2.60;;;21.50;99.90;;;;;;4145286;28;20257;-73
2022/10/21 09:45:31;;;;;;;3.78;2.80;;;21.50;99.90;;;;;;4145836;28;20225;-73
2022/10/21 09:47:34;;;;;;;5.07;2.80;;;21.50;99.90;;;;;;4143780;28;20244;-73
2022/10/21 09:49:37;;;;;;;3.90;2.50;;;21.50;99.90;;;;;;4141292;28;20213;-73
2022/10/21 09:51:41;;;;;;;5.38;2.47;;;21.50;99.90;;;;;;4144191;28;20717;-73
2022/10/21 09:53:48;;;;;;;3.55;2.75;;;21.40;99.90;;;;;;4143619;28;20220;-73
2022/10/21 09:55:55;;;;;;;5.65;2.55;;;21.50;99.90;;;;;;4140315;28;20628;-73
2022/10/21 09:57:59;;;;;;;3.35;2.35;;;21.50;99.90;;;;;;4140043;28;20225;-73
2022/10/21 10:00:05;;;;;;;3.22;2.50;;;21.50;99.90;;;;;;4142421;28;20221;-73
2022/10/21 10:02:14;;;;;;;2.72;2.53;;;21.50;99.90;;;;;;4143407;28;20270;-72
2022/10/21 10:04:23;;;;;;;2.95;2.17;;;21.50;99.90;;;;;;4141664;28;20270;-73
2022/10/21 10:06:34;;;;;;;3.92;2.53;;;21.50;99.90;;;;;;4142666;28;20661;-73
2022/10/21 10:08:39;;;;;;;3.50;2.90;;;21.50;99.90;;;;;;4146800;28;20228;-73
2022/10/21 10:10:41;;;;;;;4.25;2.70;;;21.50;99.90;;;;;;4140424;28;20213;-73
2022/10/21 10:12:56;;;;;;;3.28;2.50;;;21.50;99.90;;;;;;4148074;28;20275;-73
2022/10/21 10:15:24;;;;;;;3.83;2.75;;;21.50;99.90;;;;;;4141821;28;20217;-72
2022/10/21 10:17:32;;;;;;;3.20;2.83;;;21.50;99.90;;;;;;4143023;28;20279;-72
2022/10/21 10:19:35;;;;;;;3.40;2.47;;;21.50;99.90;;;;;;4141822;28;20611;-72
2022/10/21 10:21:37;;;;;;;3.38;2.60;;;21.50;99.90;;;;;;4146246;28;20225;-72
2022/10/21 10:23:44;;;;;;;3.38;2.70;;;21.50;99.90;;;;;;4144542;28;20283;-72
2022/10/21 10:25:51;;;;;;;3.42;2.40;;;21.50;99.90;;;;;;4142120;28;20212;-72
2022/10/21 10:27:56;;;;;;;4.45;2.40;;;21.50;99.90;;;;;;4142306;28;20295;-72
2022/10/21 10:30:00;;;;;;;3.33;2.60;;;21.50;99.90;;;;;;4143250;28;20213;-72
2022/10/21 10:32:11;;;;;;;3.45;2.67;;;21.50;99.90;;;;;;4144337;28;20217;-73
2022/10/21 10:34:20;;;;;;;4.20;2.47;;;21.50;99.90;;;;;;4145137;28;20283;-73
2022/10/21 10:36:28;;;;;;;3.67;2.33;;;21.50;99.90;;;;;;4141493;28;20208;-73
2022/10/21 10:38:34;;;;;;;3.55;2.17;;;21.50;99.90;;;;;;4144385;28;20259;-73
2022/10/21 10:40:41;;;;;;;3.80;2.45;;;21.60;99.90;;;;;;4140165;28;20232;-72
2022/10/21 10:42:45;;;;;;;4.15;2.70;;;21.50;99.90;;;;;;4143728;28;20352;-73
2022/10/21 10:44:52;;;;;;;2.65;2.28;;;21.60;99.90;;;;;;4142710;28;20283;-72
2022/10/21 10:46:57;;;;;;;4.90;2.67;;;21.60;99.90;;;;;;4142530;28;20225;-71
2022/10/21 10:49:16;;;;;;;4.45;2.80;;;21.60;99.90;;;;;;4142269;28;20291;-72
2022/10/21 10:51:27;;;;;;;3.33;2.60;;;21.50;99.90;;;;;;4143089;28;20224;-72